Time;durP1;ratioP1;P1;durP2;ratioP2;P2;SDS_P1;SDS_P2;PMS_P1;PMS_P2;Temp;Humidity;BMP_temperature;BMP_pressure;BME280_temperature;BME280_humidity;BME280_pressure;Samples;Min_cycle;Max_cycle;Signal;HPM_P1;HPM_P2
2023/09/09 00:00:53;;;;;;;13.40;11.20;;;;;;;14.69;74.82;100699.70;131177;1261;106402;-80
2023/09/09 00:04:10;;;;;;;13.00;11.10;;;;;;;14.64;74.81;100701.30;131142;1256;107370;-81
2023/09/09 00:07:16;;;;;;;12.60;9.80;;;;;;;14.59;74.81;100699.13;131194;1255;107150;-81
2023/09/09 00:10:22;;;;;;;11.90;10.70;;;;;;;14.58;75.08;100694.84;131165;1263;106711;-80
2023/09/09 00:13:27;;;;;;;12.00;10.60;;;;;;;14.56;74.76;100696.76;131182;1251;106537;-80
2023/09/09 00:16:45;;;;;;;12.90;11.60;;;;;;;14.51;75.04;100696.50;131185;1251;107669;-80
2023/09/09 00:19:54;;;;;;;12.20;10.90;;;;;;;14.51;74.99;100695.33;131057;1256;105695;-80
2023/09/09 00:23:00;;;;;;;13.70;11.70;;;;;;;14.49;74.90;100695.14;131239;1256;107660;-80
2023/09/09 00:26:05;;;;;;;13.40;11.20;;;;;;;14.46;74.87;100695.81;131238;1253;106273;-80
2023/09/09 00:29:11;;;;;;;12.30;10.90;;;;;;;14.43;74.79;100698.12;131129;1255;107748;-80
2023/09/09 00:32:17;;;;;;;12.70;11.00;;;;;;;14.41;74.98;100693.59;131201;1262;107580;-80
2023/09/09 00:35:22;;;;;;;13.00;11.10;;;;;;;14.40;75.26;100696.20;131203;1264;107755;-80
2023/09/09 00:38:28;;;;;;;12.60;10.60;;;;;;;14.37;75.10;100696.02;131247;1257;107767;-80
2023/09/09 00:41:34;;;;;;;12.20;10.30;;;;;;;14.34;75.18;100692.14;131153;1255;107564;-80
2023/09/09 00:44:39;;;;;;;14.70;11.40;;;;;;;14.34;75.27;100689.86;131193;1254;107553;-80
2023/09/09 00:47:47;;;;;;;12.90;11.40;;;;;;;14.33;75.05;100691.50;131166;1256;106137;-80
2023/09/09 00:50:53;;;;;;;13.10;10.80;;;;;;;14.32;74.97;100686.81;131157;1263;107090;-80
2023/09/09 00:53:59;;;;;;;13.10;10.80;;;;;;;14.30;75.18;100687.57;131255;1257;107146;-80
2023/09/09 00:57:07;;;;;;;12.50;11.20;;;;;;;14.26;75.16;100687.00;130881;1254;327521;-80
2023/09/09 01:00:14;;;;;;;14.00;12.20;;;;;;;14.22;75.09;100684.16;131200;1254;107317;-80
2023/09/09 01:03:19;;;;;;;14.90;11.80;;;;;;;14.19;75.11;100686.42;131176;1254;107768;-80
2023/09/09 01:06:26;;;;;;;13.90;11.10;;;;;;;14.15;75.30;100693.51;131118;1257;108008;-80
2023/09/09 01:09:33;;;;;;;13.70;11.30;;;;;;;14.14;75.29;100696.84;131120;1251;106446;-79
2023/09/09 01:12:41;;;;;;;13.30;10.90;;;;;;;14.14;75.24;100692.85;131000;1253;107684;-80
2023/09/09 01:15:46;;;;;;;14.50;11.00;;;;;;;14.16;75.28;100693.06;130976;1257;107815;-79
2023/09/09 01:18:52;;;;;;;13.30;11.10;;;;;;;14.17;75.21;100694.77;131010;1264;107848;-79
2023/09/09 01:22:03;;;;;;;12.70;11.00;;;;;;;14.16;75.19;100698.23;131290;1254;107705;-79
2023/09/09 01:25:10;;;;;;;14.40;12.00;;;;;;;14.14;75.20;100699.48;131041;1251;107361;-79
2023/09/09 01:28:16;;;;;;;13.70;12.30;;;;;;;14.11;75.11;100696.91;131074;1255;105868;-80
2023/09/09 01:31:22;;;;;;;12.50;11.20;;;;;;;14.10;75.25;100698.86;131027;1259;107894;-79
2023/09/09 01:34:27;;;;;;;13.00;11.30;;;;;;;14.08;75.30;100701.38;131017;1254;106439;-80
2023/09/09 01:37:34;;;;;;;12.90;10.90;;;;;;;14.02;75.03;100697.60;131068;1254;106740;-81
2023/09/09 01:40:39;;;;;;;13.60;11.10;;;;;;;13.96;75.33;100698.02;130998;1263;107444;-80
2023/09/09 01:43:45;;;;;;;14.40;10.80;;;;;;;13.94;75.54;100696.79;130925;1256;106757;-79
2023/09/09 01:46:51;;;;;;;13.70;11.60;;;;;;;13.96;75.50;100698.05;130999;1256;106924;-80
2023/09/09 01:49:56;;;;;;;15.50;12.00;;;;;;;13.98;75.50;100696.23;131152;1251;106713;-80
2023/09/09 01:53:04;;;;;;;13.10;11.70;;;;;;;13.99;75.64;100696.46;131045;1254;107600;-79
2023/09/09 01:56:09;;;;;;;14.90;12.30;;;;;;;13.99;75.50;100696.27;130916;1264;107768;-79
2023/09/09 01:59:15;;;;;;;13.90;12.10;;;;;;;13.99;75.47;100694.55;131106;1255;106802;-80
2023/09/09 02:02:20;;;;;;;15.50;13.00;;;;;;;13.95;75.56;100701.91;131082;1251;106696;-80
2023/09/09 02:05:26;;;;;;;15.40;13.40;;;;;;;13.76;75.66;100703.04;131028;1263;107569;-79
2023/09/09 02:08:31;;;;;;;13.40;11.80;;;;;;;13.59;75.89;100706.93;131088;1255;106845;-79
2023/09/09 02:11:37;;;;;;;14.30;12.20;;;;;;;13.59;76.12;100710.72;131003;1255;107797;-80
2023/09/09 02:14:43;;;;;;;13.70;11.50;;;;;;;13.57;76.07;100711.68;131036;1254;106660;-79
2023/09/09 02:17:49;;;;;;;13.80;12.20;;;;;;;13.61;76.05;100706.80;130985;1251;106269;-79
2023/09/09 02:21:00;;;;;;;15.60;12.90;;;;;;;13.65;76.04;100710.57;130958;1260;107691;-79
2023/09/09 02:24:06;;;;;;;14.80;12.70;;;;;;;13.65;76.10;100706.11;131033;1254;107233;-80
2023/09/09 02:27:11;;;;;;;14.30;12.30;;;;;;;13.63;76.00;100713.11;130963;1255;107720;-80
2023/09/09 02:30:17;;;;;;;14.10;12.40;;;;;;;13.59;75.97;100712.38;131078;1264;106819;-80
2023/09/09 02:33:23;;;;;;;13.80;11.90;;;;;;;13.57;76.18;100710.95;130944;1263;106375;-79
2023/09/09 02:36:28;;;;;;;14.60;11.90;;;;;;;13.55;76.16;100711.67;131021;1252;107849;-80
2023/09/09 02:39:35;;;;;;;12.10;10.80;;;;;;;13.52;76.25;100710.89;131011;1254;107724;-80
2023/09/09 02:42:41;;;;;;;13.90;11.80;;;;;;;13.53;76.16;100713.85;130991;1254;107663;-79
2023/09/09 02:45:47;;;;;;;14.80;12.50;;;;;;;13.52;75.98;100711.02;131113;1253;107746;-80
2023/09/09 02:48:52;;;;;;;15.00;12.70;;;;;;;13.51;76.01;100711.35;131174;1254;107849;-80
2023/09/09 02:51:58;;;;;;;14.30;12.80;;;;;;;13.49;75.86;100713.15;131175;1256;108522;-80
2023/09/09 02:55:04;;;;;;;15.10;12.80;;;;;;;13.47;76.08;100716.33;131118;1251;106537;-79
2023/09/09 02:58:12;;;;;;;14.70;13.00;;;;;;;13.44;76.13;100719.80;130989;1254;107631;-79
2023/09/09 03:01:18;;;;;;;14.90;13.30;;;;;;;13.40;76.04;100718.58;131022;1251;108818;-79
2023/09/09 03:04:24;;;;;;;14.90;12.50;;;;;;;13.35;75.99;100716.60;131017;1254;107834;-80
2023/09/09 03:07:30;;;;;;;13.80;12.10;;;;;;;13.33;76.17;100711.45;131055;1251;106182;-79
2023/09/09 03:10:37;;;;;;;15.10;12.50;;;;;;;13.33;76.16;100715.59;131045;1256;107774;-82
2023/09/09 03:13:44;;;;;;;13.70;12.30;;;;;;;13.31;76.18;100714.52;131118;1250;108438;-81
2023/09/09 03:16:50;;;;;;;14.20;12.70;;;;;;;13.30;76.29;100713.59;131138;1254;106827;-81
2023/09/09 03:19:56;;;;;;;16.00;12.70;;;;;;;13.28;76.15;100716.37;131180;1254;106563;-80
2023/09/09 03:23:02;;;;;;;15.70;13.00;;;;;;;13.27;76.08;100711.86;131316;1251;107843;-80
2023/09/09 03:26:08;;;;;;;16.60;12.70;;;;;;;13.23;76.25;100714.95;131053;1255;108520;-80
2023/09/09 03:29:13;;;;;;;15.30;12.80;;;;;;;13.19;76.19;100713.23;131376;1254;109827;-79
2023/09/09 03:32:19;;;;;;;16.00;13.40;;;;;;;13.14;76.11;100717.10;131243;1251;108587;-79
2023/09/09 03:35:24;;;;;;;13.90;11.30;;;;;;;13.10;76.16;100711.24;132440;1251;107643;-78
2023/09/09 03:38:30;;;;;;;14.30;11.70;;;;;;;13.08;76.27;100707.92;131135;1254;106582;-78
2023/09/09 03:41:36;;;;;;;13.40;11.00;;;;;;;13.08;76.27;100702.40;131012;1255;107032;-78
2023/09/09 03:44:41;;;;;;;13.80;11.50;;;;;;;13.09;76.35;100703.23;131119;1254;106698;-79
2023/09/09 03:47:47;;;;;;;13.40;11.10;;;;;;;13.11;76.26;100707.13;130985;1254;107011;-78
2023/09/09 03:50:57;;;;;;;12.70;11.20;;;;;;;13.10;76.17;100705.22;130989;1251;107745;-78
2023/09/09 03:54:02;;;;;;;14.50;12.10;;;;;;;13.09;76.14;100704.41;131062;1254;107230;-79
2023/09/09 03:57:08;;;;;;;14.80;11.60;;;;;;;13.06;76.29;100704.56;131006;1256;106665;-79
2023/09/09 04:00:16;;;;;;;13.70;11.60;;;;;;;13.04;76.33;100704.79;130988;1257;107179;-79
2023/09/09 04:03:22;;;;;;;13.50;11.70;;;;;;;13.02;76.31;100705.55;131012;1255;107675;-78
2023/09/09 04:06:28;;;;;;;14.70;11.60;;;;;;;12.95;75.98;100705.20;130977;1254;106936;-78
2023/09/09 04:09:40;;;;;;;12.20;10.50;;;;;;;12.91;76.39;100705.52;131029;1263;107657;-78
2023/09/09 04:12:48;;;;;;;13.60;10.50;;;;;;;12.92;76.38;100708.70;130974;1254;107429;-78
2023/09/09 04:15:56;;;;;;;13.50;10.90;;;;;;;12.94;76.52;100714.73;130959;1258;106655;-78
2023/09/09 04:19:02;;;;;;;16.60;11.40;;;;;;;12.97;76.50;100714.24;130980;1251;107172;-79
2023/09/09 04:22:09;;;;;;;12.50;10.90;;;;;;;13.01;76.52;100710.80;130948;1254;108199;-80
2023/09/09 04:25:15;;;;;;;13.60;11.10;;;;;;;13.04;76.47;100709.30;131025;1254;107133;-78
2023/09/09 04:28:21;;;;;;;14.40;11.50;;;;;;;13.05;76.56;100711.51;130970;1254;106484;-79
2023/09/09 04:31:27;;;;;;;12.40;11.00;;;;;;;13.06;76.55;100716.38;130938;1258;106825;-79
2023/09/09 04:34:33;;;;;;;13.40;11.20;;;;;;;13.08;76.62;100715.27;130959;1251;108020;-79
2023/09/09 04:37:38;;;;;;;12.00;10.50;;;;;;;13.11;76.70;100712.83;131050;1251;106979;-78
2023/09/09 04:40:44;;;;;;;12.40;10.40;;;;;;;13.16;76.68;100715.73;130915;1251;106531;-78
2023/09/09 04:43:51;;;;;;;12.30;9.90;;;;;;;13.21;76.75;100713.77;130982;1266;108510;-78
2023/09/09 04:46:57;;;;;;;11.90;9.70;;;;;;;13.31;76.73;100716.67;130980;1254;108698;-78
2023/09/09 04:50:03;;;;;;;11.80;10.40;;;;;;;13.41;76.69;100716.66;130996;1254;107603;-78
2023/09/09 04:53:09;;;;;;;14.90;10.90;;;;;;;13.50;76.83;100714.91;131046;1260;107821;-78
2023/09/09 04:56:15;;;;;;;12.10;10.80;;;;;;;13.61;76.90;100710.20;130998;1251;107802;-78
2023/09/09 04:59:22;;;;;;;12.80;10.80;;;;;;;13.71;76.84;100709.67;130999;1256;107661;-78
2023/09/09 05:02:27;;;;;;;12.10;10.50;;;;;;;13.80;76.84;100708.37;131002;1254;106350;-79
2023/09/09 05:05:33;;;;;;;13.90;9.70;;;;;;;13.86;77.01;100707.73;130902;1254;106973;-78
2023/09/09 05:08:39;;;;;;;11.60;9.40;;;;;;;13.94;76.99;100708.21;131028;1255;109172;-79
2023/09/09 05:11:45;;;;;;;11.10;10.00;;;;;;;14.03;77.09;100712.83;130972;1254;108761;-78
2023/09/09 05:14:50;;;;;;;12.50;9.80;;;;;;;14.12;77.07;100712.28;131006;1254;107748;-78
2023/09/09 05:17:56;;;;;;;11.00;9.70;;;;;;;14.25;77.09;100709.41;130925;1254;107294;-77
2023/09/09 05:21:02;;;;;;;12.40;10.00;;;;;;;14.38;77.08;100711.27;131045;1251;106390;-78
2023/09/09 05:24:08;;;;;;;12.30;10.60;;;;;;;14.47;77.16;100716.81;131030;1258;107768;-78
2023/09/09 05:27:14;;;;;;;13.20;10.80;;;;;;;14.58;77.38;100712.80;130994;1250;106518;-79
2023/09/09 05:30:20;;;;;;;11.70;9.50;;;;;;;14.67;77.40;100711.14;130991;1251;106610;-78
2023/09/09 05:33:25;;;;;;;11.30;9.20;;;;;;;14.71;77.47;100714.09;130993;1254;107982;-78
2023/09/09 05:36:31;;;;;;;10.90;9.30;;;;;;;14.75;77.66;100711.95;131071;1250;106598;-79
2023/09/09 05:39:37;;;;;;;11.00;9.80;;;;;;;14.80;77.62;100710.23;131214;1265;107684;-80
2023/09/09 05:42:43;;;;;;;11.70;10.00;;;;;;;14.89;77.84;100713.61;131440;1252;110073;-79
2023/09/09 05:45:49;;;;;;;10.60;9.50;;;;;;;14.99;78.03;100711.55;131140;1251;107270;-80
2023/09/09 05:48:55;;;;;;;14.80;11.00;;;;;;;15.11;78.10;100715.79;131156;1254;106662;-80
2023/09/09 05:52:01;;;;;;;12.70;10.70;;;;;;;15.20;78.33;100716.41;131164;1254;108051;-79
2023/09/09 05:55:09;;;;;;;11.30;10.10;;;;;;;15.27;78.49;100713.58;131155;1254;107797;-80
2023/09/09 05:58:15;;;;;;;10.80;9.30;;;;;;;15.37;78.77;100713.80;131284;1251;107072;-79
2023/09/09 06:01:21;;;;;;;14.40;10.40;;;;;;;15.49;79.10;100715.45;131089;1249;106637;-80
2023/09/09 06:04:27;;;;;;;12.00;10.30;;;;;;;15.63;79.27;100715.52;131115;1251;107673;-81
2023/09/09 06:07:33;;;;;;;11.50;10.30;;;;;;;15.77;79.53;100717.69;131388;1254;106830;-79
2023/09/09 06:10:39;;;;;;;13.30;11.80;;;;;;;15.91;79.77;100720.41;131166;1251;106515;-80
2023/09/09 06:13:44;;;;;;;17.50;12.60;;;;;;;16.06;80.14;100727.34;131072;1254;107904;-80
2023/09/09 06:16:50;;;;;;;12.30;10.70;;;;;;;16.20;80.37;100728.52;131021;1254;107826;-79
2023/09/09 06:19:56;;;;;;;14.60;12.30;;;;;;;16.37;80.69;100729.98;131067;1253;107704;-79
2023/09/09 06:23:02;;;;;;;17.40;13.30;;;;;;;16.53;80.97;100727.58;131134;1250;107933;-80
2023/09/09 06:26:08;;;;;;;14.90;13.30;;;;;;;16.71;81.33;100729.01;131330;1250;108080;-79
2023/09/09 06:29:14;;;;;;;15.70;13.60;;;;;;;16.89;81.41;100732.31;130998;1254;107622;-79
2023/09/09 06:32:20;;;;;;;16.60;12.70;;;;;;;17.05;81.70;100731.82;131067;1250;107717;-79
2023/09/09 06:35:26;;;;;;;13.30;11.00;;;;;;;17.21;81.73;100733.76;130962;1255;107602;-79
2023/09/09 06:38:32;;;;;;;13.60;11.50;;;;;;;17.36;82.05;100734.05;131555;1265;107538;-80
2023/09/09 06:41:37;;;;;;;13.80;12.30;;;;;;;17.54;82.35;100733.17;131323;1254;107546;-79
2023/09/09 06:44:43;;;;;;;14.60;12.60;;;;;;;17.72;82.47;100728.47;131302;1251;107418;-79
2023/09/09 06:47:48;;;;;;;14.40;12.10;;;;;;;17.88;82.56;100731.55;131107;1250;107699;-79
2023/09/09 06:50:54;;;;;;;12.60;11.00;;;;;;;18.04;82.61;100731.92;131239;1254;108144;-80
2023/09/09 06:54:00;;;;;;;14.60;11.20;;;;;;;18.19;82.54;100727.14;131098;1253;107660;-80
2023/09/09 06:57:06;;;;;;;14.50;11.80;;;;;;;18.37;82.42;100728.66;131131;1250;107789;-80
2023/09/09 07:00:14;;;;;;;11.70;10.60;;;;;;;18.56;82.38;100733.00;131089;1263;107238;-80
2023/09/09 07:03:20;;;;;;;12.40;11.10;;;;;;;18.74;81.98;100737.77;130960;1255;108744;-80
2023/09/09 07:06:25;;;;;;;12.90;10.40;;;;;;;18.87;81.65;100739.53;131144;1254;106904;-80
2023/09/09 07:09:31;;;;;;;11.30;9.20;;;;;;;19.01;81.10;100745.30;131174;1251;107668;-80
2023/09/09 07:12:36;;;;;;;10.20;8.90;;;;;;;19.14;80.80;100745.72;131099;1249;106494;-80
2023/09/09 07:15:42;;;;;;;10.10;9.10;;;;;;;19.28;80.68;100750.71;131143;1256;107753;-80
2023/09/09 07:18:47;;;;;;;16.80;8.90;;;;;;;19.43;80.61;100747.65;131124;1254;107835;-80
2023/09/09 07:21:53;;;;;;;10.50;9.40;;;;;;;19.59;80.53;100746.11;131191;1254;107032;-82
2023/09/09 07:24:59;;;;;;;11.60;9.80;;;;;;;19.72;80.44;100744.48;131423;1250;107648;-81
2023/09/09 07:28:05;;;;;;;11.00;9.80;;;;;;;19.86;80.44;100741.98;131165;1253;107110;-80
2023/09/09 07:31:10;;;;;;;9.30;8.10;;;;;;;19.99;80.49;100741.14;131084;1249;107659;-80
2023/09/09 07:34:16;;;;;;;10.30;8.10;;;;;;;20.10;80.11;100739.94;131181;1254;106720;-80
2023/09/09 07:37:21;;;;;;;9.70;8.10;;;;;;;20.24;80.01;100741.85;131164;1251;107742;-80
2023/09/09 07:40:27;;;;;;;10.30;8.30;;;;;;;20.36;79.77;100745.55;131225;1252;106770;-81
2023/09/09 07:43:33;;;;;;;9.60;8.60;;;;;;;20.51;79.48;100746.81;131140;1254;107814;-83
2023/09/09 07:46:38;;;;;;;10.20;8.80;;;;;;;20.70;79.30;100746.70;131168;1251;106345;-80
2023/09/09 07:49:44;;;;;;;9.20;8.30;;;;;;;20.90;79.31;100744.36;131113;1253;106620;-81
2023/09/09 07:52:49;;;;;;;8.80;7.90;;;;;;;21.05;79.05;100745.81;131181;1250;107394;-82
2023/09/09 07:55:55;;;;;;;9.20;8.20;;;;;;;21.19;78.89;100743.52;131133;1254;108536;-82
2023/09/09 07:59:01;;;;;;;9.30;8.40;;;;;;;21.34;78.54;100743.94;131247;1254;108322;-83
2023/09/09 08:02:13;;;;;;;8.50;7.60;;;;;;;21.44;78.14;100737.87;131306;1251;106789;-82
2023/09/09 08:05:20;;;;;;;9.30;7.90;;;;;;;21.58;78.07;100736.47;131267;1254;107849;-81
2023/09/09 08:08:25;;;;;;;9.00;7.60;;;;;;;21.76;78.05;100737.56;131248;1250;107725;-81
2023/09/09 08:11:33;;;;;;;9.30;8.40;;;;;;;21.95;77.56;100738.36;131609;1250;107393;-80
2023/09/09 08:14:41;;;;;;;8.60;7.70;;;;;;;22.11;77.27;100729.38;131518;1254;107626;-80
2023/09/09 08:17:46;;;;;;;9.00;8.10;;;;;;;22.26;77.01;100727.34;131271;1254;108821;-81
2023/09/09 08:20:53;;;;;;;10.20;9.20;;;;;;;22.41;77.05;100720.98;131320;1253;107687;-82
2023/09/09 08:24:01;;;;;;;9.40;8.50;;;;;;;22.57;76.89;100725.38;131268;1252;106669;-82
2023/09/09 08:27:07;;;;;;;9.40;8.40;;;;;;;22.68;76.16;100725.63;131159;1254;108471;-81
2023/09/09 08:30:15;;;;;;;9.70;8.40;;;;;;;22.76;75.73;100723.61;131148;1254;107009;-82
2023/09/09 08:33:22;;;;;;;10.20;7.80;;;;;;;22.86;75.66;100726.40;131110;1250;107869;-81
2023/09/09 08:36:28;;;;;;;9.90;8.50;;;;;;;22.98;75.80;100726.09;131545;1254;108011;-82
2023/09/09 08:39:34;;;;;;;8.90;8.00;;;;;;;23.08;74.69;100726.48;131724;1249;107384;-82
2023/09/09 08:42:56;;;;;;;10.50;8.00;;;;;;;23.12;74.09;100723.30;131216;1250;108535;-81
2023/09/09 08:46:10;;;;;;;9.30;8.20;;;;;;;23.14;74.35;100727.34;131176;1251;107790;-81
2023/09/09 08:49:18;;;;;;;9.30;7.60;;;;;;;23.16;74.19;100727.83;131403;1253;108544;-85
2023/09/09 08:52:27;;;;;;;8.40;7.50;;;;;;;23.19;73.62;100726.63;131237;1254;110142;-81
2023/09/09 08:55:33;;;;;;;8.40;7.50;;;;;;;23.21;73.49;100728.02;131509;1254;107009;-82
2023/09/09 08:58:40;;;;;;;7.90;7.10;;;;;;;23.27;73.54;100725.88;131145;1254;107786;-81
2023/09/09 09:01:47;;;;;;;7.80;7.00;;;;;;;23.35;72.49;100723.56;131278;1250;107688;-80
2023/09/09 09:04:55;;;;;;;8.00;7.00;;;;;;;23.44;72.16;100727.27;131168;1254;107534;-81
2023/09/09 09:08:01;;;;;;;8.50;6.80;;;;;;;23.52;71.87;100719.23;131108;1254;107810;-82
2023/09/09 09:11:08;;;;;;;7.70;6.90;;;;;;;23.62;71.61;100717.44;131107;1251;107499;-83
2023/09/09 09:14:14;;;;;;;8.00;6.90;;;;;;;23.71;71.32;100714.72;131168;1254;107150;-83
2023/09/09 09:17:20;;;;;;;7.30;6.60;;;;;;;23.83;71.05;100713.43;131148;1253;107897;-83
2023/09/09 09:20:30;;;;;;;7.10;6.40;;;;;;;23.94;70.72;100711.61;131093;1254;107714;-82
2023/09/09 09:23:41;;;;;;;6.80;6.20;;;;;;;24.01;70.10;100706.06;131330;1249;107933;-81
2023/09/09 09:26:47;;;;;;;8.30;6.10;;;;;;;24.05;69.88;100702.05;131084;1254;107148;-80
2023/09/09 09:29:54;;;;;;;6.90;6.30;;;;;;;24.09;69.53;100704.48;131167;1254;106756;-79
2023/09/09 09:33:00;;;;;;;7.70;5.90;;;;;;;24.09;69.40;100699.41;131154;1254;108089;-81
2023/09/09 09:36:06;;;;;;;6.10;5.60;;;;;;;24.08;68.83;100697.05;131109;1253;106654;-83
2023/09/09 09:39:11;;;;;;;6.50;5.90;;;;;;;24.09;68.56;100699.86;131253;1250;107742;-82
2023/09/09 09:42:19;;;;;;;6.60;5.70;;;;;;;24.14;68.39;100701.77;131131;1254;107714;-82
2023/09/09 09:45:26;;;;;;;6.90;5.70;;;;;;;24.19;68.14;100704.16;131116;1254;107633;-84
2023/09/09 09:48:32;;;;;;;9.00;6.10;;;;;;;24.26;67.76;100705.99;131198;1250;107662;-83
2023/09/09 09:51:45;;;;;;;7.10;5.70;;;;;;;24.32;67.35;100702.25;131068;1254;108322;-81
2023/09/09 09:54:53;;;;;;;8.40;5.90;;;;;;;24.36;67.08;100704.16;131430;1254;108607;-80
2023/09/09 09:58:00;;;;;;;6.20;5.60;;;;;;;24.40;66.93;100706.07;131183;1254;107807;-80
2023/09/09 10:01:07;;;;;;;6.40;5.70;;;;;;;24.40;65.93;100705.14;131146;1257;106729;-82
2023/09/09 10:04:17;;;;;;;6.20;5.60;;;;;;;24.38;66.05;100704.00;131235;1254;107631;-83
2023/09/09 10:07:24;;;;;;;6.30;5.70;;;;;;;24.41;65.88;100702.96;131116;1251;109002;-82
2023/09/09 10:10:32;;;;;;;7.00;5.80;;;;;;;24.43;65.68;100702.50;131164;1250;108433;-82
2023/09/09 10:13:44;;;;;;;6.30;5.70;;;;;;;24.48;65.65;100698.97;131057;1251;107320;-81
2023/09/09 10:16:52;;;;;;;7.30;5.60;;;;;;;24.55;65.39;100699.65;131050;1254;107792;-81
2023/09/09 10:19:58;;;;;;;6.00;5.40;;;;;;;24.60;64.90;100702.44;131246;1254;106956;-81
2023/09/09 10:23:05;;;;;;;5.70;5.10;;;;;;;24.62;64.43;100696.39;131133;1254;107169;-83
2023/09/09 10:26:13;;;;;;;16.40;9.50;;;;;;;24.63;64.22;100696.69;131208;1251;107858;-81
2023/09/09 10:29:20;;;;;;;7.80;7.00;;;;;;;24.63;61.62;100697.83;131048;1254;107691;-81
2023/09/09 10:32:29;;;;;;;8.00;5.80;;;;;;;24.63;62.74;100692.85;131194;1254;107762;-82
2023/09/09 10:35:35;;;;;;;6.60;5.60;;;;;;;24.67;63.23;100688.88;131145;1254;106596;-81
2023/09/09 10:38:40;;;;;;;5.90;5.40;;;;;;;24.71;63.05;100689.17;131276;1249;106487;-82
2023/09/09 10:41:46;;;;;;;6.20;5.60;;;;;;;24.78;62.86;100685.63;131210;1255;106271;-81
2023/09/09 10:44:54;;;;;;;5.90;5.40;;;;;;;24.85;62.50;100684.27;131151;1260;106613;-80
2023/09/09 10:48:02;;;;;;;6.00;5.30;;;;;;;24.91;61.94;100687.40;131152;1254;107660;-80
2023/09/09 10:51:09;;;;;;;7.10;5.60;;;;;;;24.95;62.12;100685.66;131208;1254;107401;-81
2023/09/09 10:54:18;;;;;;;7.80;6.00;;;;;;;25.03;61.97;100685.50;131171;1249;107084;-81
2023/09/09 10:57:35;;;;;;;7.50;6.10;;;;;;;25.11;61.45;100683.80;131198;1249;108524;-81
2023/09/09 11:00:42;;;;;;;7.00;6.00;;;;;;;25.15;60.82;100680.89;131215;1255;107834;-81
2023/09/09 11:03:50;;;;;;;7.30;6.10;;;;;;;25.19;60.82;100682.77;131246;1255;106906;-81
2023/09/09 11:07:08;;;;;;;6.40;5.80;;;;;;;25.26;60.75;100680.52;131275;1251;107414;-81
2023/09/09 11:10:17;;;;;;;6.50;5.80;;;;;;;25.35;60.45;100684.27;131418;1249;105941;-81
2023/09/09 11:13:39;;;;;;;5.80;5.30;;;;;;;25.47;60.37;100684.73;131171;1255;108597;-81
2023/09/09 11:16:48;;;;;;;8.60;5.50;;;;;;;25.61;60.67;100679.39;131136;1252;108363;-81
2023/09/09 11:19:55;;;;;;;6.00;5.40;;;;;;;25.73;60.35;100680.06;131159;1250;107530;-81
2023/09/09 11:23:01;;;;;;;5.70;5.10;;;;;;;25.81;59.77;100676.29;131101;1256;107680;-82
2023/09/09 11:26:08;;;;;;;8.40;5.80;;;;;;;25.85;59.58;100668.05;131191;1254;108969;-81
2023/09/09 11:29:14;;;;;;;5.90;5.40;;;;;;;25.91;59.34;100669.21;131177;1254;107529;-81
2023/09/09 11:32:26;;;;;;;6.10;5.40;;;;;;;25.98;58.57;100670.27;131417;1252;108954;-81
2023/09/09 11:35:33;;;;;;;5.80;5.30;;;;;;;26.01;58.64;100670.39;131101;1254;106538;-81
2023/09/09 11:38:39;;;;;;;6.60;5.90;;;;;;;26.06;58.39;100670.31;131213;1251;107659;-80
2023/09/09 11:41:46;;;;;;;6.40;5.30;;;;;;;26.08;58.15;100667.95;131102;1250;108530;-82
2023/09/09 11:44:52;;;;;;;7.90;6.50;;;;;;;26.09;58.13;100662.16;131061;1254;106644;-82
2023/09/09 11:47:58;;;;;;;6.30;5.40;;;;;;;26.12;57.85;100667.64;131158;1250;108600;-81
2023/09/09 11:51:03;;;;;;;7.00;5.90;;;;;;;26.11;57.55;100664.66;131119;1252;108622;-81
2023/09/09 11:54:12;;;;;;;6.50;5.90;;;;;;;26.06;56.61;100667.38;131081;1253;107681;-81
2023/09/09 11:57:18;;;;;;;7.20;5.40;;;;;;;26.03;56.36;100665.77;131404;1249;107930;-82
2023/09/09 12:00:24;;;;;;;6.90;5.90;;;;;;;26.00;55.47;100663.05;131801;1253;107948;-81
2023/09/09 12:03:30;;;;;;;6.80;5.40;;;;;;;26.00;55.14;100662.66;131314;1249;105840;-82
2023/09/09 12:06:36;;;;;;;7.60;5.70;;;;;;;26.01;55.63;100661.85;133206;1249;108437;-82
2023/09/09 12:09:49;;;;;;;5.90;5.20;;;;;;;26.03;55.33;100658.77;133699;1251;108498;-83
2023/09/09 12:12:55;;;;;;;6.50;5.50;;;;;;;26.06;55.27;100658.41;131840;1250;107636;-80
2023/09/09 12:16:02;;;;;;;6.10;5.50;;;;;;;26.09;54.79;100663.14;131037;1254;107840;-81
2023/09/09 12:19:12;;;;;;;6.00;5.40;;;;;;;26.11;54.15;100660.19;132579;1250;108502;-81
2023/09/09 12:22:31;;;;;;;9.00;5.10;;;;;;;26.14;54.17;100657.66;134077;1249;107637;-81
2023/09/09 12:25:37;;;;;;;6.20;5.40;;;;;;;26.15;54.67;100658.61;133623;1249;107421;-81
2023/09/09 12:28:45;;;;;;;5.70;5.10;;;;;;;26.18;54.12;100655.65;133158;1250;107110;-81
2023/09/09 12:31:56;;;;;;;6.20;5.20;;;;;;;26.22;53.87;100658.34;131377;1250;107638;-82
2023/09/09 12:35:02;;;;;;;5.60;4.90;;;;;;;26.23;53.84;100650.43;131552;1250;107348;-81
2023/09/09 12:38:08;;;;;;;6.40;5.10;;;;;;;26.25;54.21;100653.05;131288;1255;106956;-82
2023/09/09 12:41:17;;;;;;;6.20;5.20;;;;;;;26.26;54.29;100652.22;132008;1252;107766;-81
2023/09/09 12:44:22;;;;;;;7.80;5.30;;;;;;;26.28;54.31;100647.49;131102;1253;108021;-80
2023/09/09 12:47:29;;;;;;;5.70;5.10;;;;;;;26.28;54.05;100645.42;131111;1254;108662;-81
2023/09/09 12:50:35;;;;;;;5.70;5.20;;;;;;;26.26;53.40;100646.45;131175;1254;107452;-81
2023/09/09 12:53:40;;;;;;;7.00;6.40;;;;;;;26.25;53.40;100649.26;131057;1250;106683;-80
2023/09/09 12:56:46;;;;;;;6.20;5.60;;;;;;;26.22;53.17;100646.33;131213;1255;108320;-83
2023/09/09 12:59:52;;;;;;;7.60;5.80;;;;;;;26.21;53.76;100648.88;131236;1252;106396;-80
2023/09/09 13:02:57;;;;;;;5.70;5.20;;;;;;;26.22;53.54;100642.98;131116;1254;107847;-80
2023/09/09 13:06:03;;;;;;;5.70;5.10;;;;;;;26.22;53.28;100644.61;131060;1251;107165;-81
2023/09/09 13:09:09;;;;;;;6.00;5.40;;;;;;;26.22;52.83;100640.39;131153;1253;107121;-81
2023/09/09 13:12:14;;;;;;;9.20;5.30;;;;;;;26.21;52.35;100637.92;131376;1254;107862;-81
2023/09/09 13:15:22;;;;;;;6.10;5.50;;;;;;;26.20;52.40;100634.02;131146;1261;107641;-81
2023/09/09 13:18:28;;;;;;;5.70;5.10;;;;;;;26.19;52.57;100637.73;131236;1250;107705;-82
2023/09/09 13:21:33;;;;;;;6.90;4.90;;;;;;;26.17;52.26;100636.27;133266;1254;109196;-82
2023/09/09 13:24:39;;;;;;;5.90;5.00;;;;;;;26.14;52.23;100629.44;131231;1254;106883;-82
2023/09/09 13:27:46;;;;;;;8.00;4.90;;;;;;;26.12;51.91;100629.84;131138;1255;106399;-81
2023/09/09 13:30:51;;;;;;;7.40;5.20;;;;;;;26.12;51.70;100631.09;131186;1253;108349;-81
2023/09/09 13:33:57;;;;;;;6.90;6.20;;;;;;;26.17;52.18;100632.02;131171;1252;107645;-80
2023/09/09 13:37:03;;;;;;;5.60;5.10;;;;;;;26.22;52.09;100626.63;131142;1255;108626;-80
2023/09/09 13:40:11;;;;;;;5.50;5.00;;;;;;;26.26;51.50;100627.38;131139;1254;107215;-80
2023/09/09 13:43:16;;;;;;;9.00;6.00;;;;;;;26.28;51.57;100626.27;131213;1253;106816;-81
2023/09/09 13:46:22;;;;;;;6.50;5.90;;;;;;;26.30;51.97;100626.84;131038;1254;106708;-80
2023/09/09 13:49:27;;;;;;;5.90;5.20;;;;;;;26.31;51.56;100625.88;131088;1254;106717;-82
2023/09/09 13:52:33;;;;;;;6.20;5.20;;;;;;;26.32;51.51;100624.04;131116;1255;107815;-81
2023/09/09 13:55:39;;;;;;;5.30;4.80;;;;;;;26.32;51.18;100625.79;131118;1254;107767;-78
2023/09/09 13:58:45;;;;;;;7.20;5.00;;;;;;;26.31;51.19;100624.94;130939;1250;106653;-81